Dorsten Airfield

DE-0176 · Nordrhein-Westfalen, Deutschland

METAR-Geschichte DE-0176 · Dorsten Airfield

Unten siehst du die METARs der letzten paar Tage. Wähle ein Jahr, um ältere METARs ab dem Jahr 2007 zu durchsuchen.

3. Dezember 2022

Uhrzeit Code Wetter Temp. Sichtweite Wolkendecke Wind METAR/SPECI
07:20
V
2 °C 10 km+ - 050° 050° 8 kt METAR EDDL 030620Z AUTO 05008KT 9999 SCT015 02/M01 Q1021 NOSIG
06:50
V
2 °C 10 km+ - 050° 050° 8 kt METAR EDDL 030550Z AUTO 05008KT 9999 FEW015 02/M01 Q1021 NOSIG
06:20
V
2 °C 10 km+ - 060° 060° 9 kt METAR EDDL 030520Z AUTO 06009KT 9999 FEW015 02/M01 Q1021 TEMPO BKN013
05:50
V
2 °C 10 km+ - 050° 050° 9 kt METAR EDDL 030450Z AUTO 05009KT 9999 FEW015 SCT038 02/M01 Q1021 TEMPO BKN013
05:20
V
2 °C 10 km+ - 050° 050° 9 kt METAR EDDL 030420Z AUTO 05009KT 9999 SCT015 02/M01 Q1021 TEMPO BKN013
04:50
M
2 °C 10 km+ 1.600 ft 050° 050° 7 kt METAR EDDL 030350Z AUTO 05007KT 9999 BKN016 02/M01 Q1021 TEMPO BKN013
04:20
M
2 °C 10 km+ 1.600 ft 050° 050° 7 kt METAR EDDL 030320Z AUTO 05007KT 9999 -SN BKN016 BKN043 02/M01 Q1022 TEMPO BKN013
03:50
M
2 °C 10 km+ 1.700 ft 050° 050° 7 kt METAR EDDL 030250Z AUTO 05007KT 9999 BKN017 OVC045 02/M01 Q1022 NOSIG
03:20
M
2 °C 10 km+ 1.700 ft 050° 050° 8 kt METAR EDDL 030220Z AUTO 05008KT 9999 BKN017 BKN045 02/M01 Q1022 NOSIG
02:50
M
2 °C 10 km+ 1.600 ft 050° 050° 8 kt METAR EDDL 030150Z AUTO 05008KT 9999 OVC016 02/M01 Q1022 NOSIG
02:20
M
2 °C 10 km+ 1.600 ft 050° 050° 8 kt METAR EDDL 030120Z AUTO 05008KT 9999 BKN016 02/M01 Q1022 NOSIG
01:50
M
2 °C 10 km+ 1.600 ft 050° 050° 9 kt METAR EDDL 030050Z AUTO 05009KT 9999 OVC016 02/M01 Q1022 NOSIG
01:20
M
2 °C 10 km+ 1.600 ft 050° 050° 9 kt METAR EDDL 030020Z AUTO 05009KT 9999 BKN016 02/M01 Q1022 TEMPO BKN013
00:50
M
2 °C 10 km+ 1.700 ft 050° 050° 10 kt METAR EDDL 022350Z AUTO 05010KT 9999 BKN017 02/M01 Q1022 NOSIG
00:20
M
2 °C 10 km+ 1.600 ft 050° 050° 12 kt METAR EDDL 022320Z AUTO 05012KT 020V080 9999 OVC016 02/M01 Q1022 TEMPO BKN014

2. Dezember 2022

Uhrzeit Code Wetter Temp. Sichtweite Wolkendecke Wind METAR/SPECI
23:50
M
2 °C 10 km+ 1.600 ft 050° 050° 10 kt METAR EDDL 022250Z AUTO 05010KT 9999 OVC016 02/M01 Q1022 TEMPO BKN014
23:20
M
2 °C 10 km+ 1.600 ft 050° 050° 9 kt METAR EDDL 022220Z AUTO 05009KT 9999 BKN016 02/M01 Q1022 TEMPO BKN014
22:50
M
2 °C 10 km+ 2.600 ft 040° 040° 9 kt METAR EDDL 022150Z AUTO 04009KT 010V070 9999 FEW013 BKN026 02/M01 Q1022 TEMPO BKN013
22:20
M
2 °C 10 km+ 1.500 ft 040° 040° 9 kt METAR EDDL 022120Z AUTO 04009KT 020V080 9999 BKN015 BKN022 02/M01 Q1022 TEMPO BKN013
21:50
M
2 °C 10 km+ 1.400 ft 040° 040° 8 kt METAR EDDL 022050Z AUTO 04008KT 9999 OVC014 02/M00 Q1022 TEMPO BKN015
21:20
M
1 °C 10 km+ 1.300 ft 040° 040° 8 kt METAR EDDL 022020Z AUTO 04008KT 9999 BKN013 BKN018 01/M00 Q1022 TEMPO BKN015
20:50
M
2 °C 9 km 1.300 ft 040° 040° 10 kt METAR EDDL 021950Z AUTO 04010KT 9000 -DZ BKN013 BKN019 02/M00 Q1022 TEMPO BKN015
20:20
M
2 °C 10 km+ 1.600 ft 050° 050° 12 kt METAR EDDL 021920Z AUTO 05012KT 9999 -SNRA BKN016 BKN042 02/M01 Q1022 TEMPO BKN012
19:50
M
2 °C 10 km+ 1.700 ft 040° 040° 10 kt METAR EDDL 021850Z AUTO 04010KT 9999 BKN017 BKN023 02/M01 Q1022 TEMPO BKN012
19:20
M
2 °C 10 km+ 1.800 ft 050° 050° 12 kt METAR EDDL 021820Z AUTO 05012KT 010V070 9999 OVC018 02/M01 Q1023 TEMPO BKN012
18:50
M
2 °C 10 km+ 1.800 ft 040° 040° 12 kt METAR EDDL 021750Z AUTO 04012KT 9999 BKN018 OVC023 02/M01 Q1023 TEMPO BKN012
18:20
M
3 °C 10 km+ 2.500 ft 050° 050° 10 kt METAR EDDL 021720Z AUTO 05010KT 020V080 9999 SCT021 BKN025 03/M01 Q1022 NOSIG
17:50
M
3 °C 10 km+ 1.900 ft 060° 060° 13 kt METAR EDDL 021650Z AUTO 06013KT 9999 BKN019 OVC024 03/M01 Q1022 NOSIG
17:20
M
3 °C 10 km+ 1.900 ft 050° 050° 10 kt METAR EDDL 021620Z AUTO 05010KT 020V090 9999 BKN019 03/M00 Q1022 NOSIG
16:50
M
3 °C 10 km+ 1.800 ft 040° 040° 9 kt METAR EDDL 021550Z AUTO 04009KT 9999 BKN018 OVC022 03/M00 Q1022 NOSIG
16:20
M
3 °C 10 km+ 1.800 ft 040° 040° 8 kt METAR EDDL 021520Z AUTO 04008KT 010V070 9999 OVC018 03/M00 Q1022 NOSIG
15:50
M
3 °C 10 km+ 1.700 ft 040° 040° 9 kt METAR EDDL 021450Z AUTO 04009KT 9999 OVC017 03/M00 Q1022 NOSIG
15:20
M
3 °C 9 km 1.600 ft 040° 040° 10 kt METAR EDDL 021420Z AUTO 04010KT 9000 OVC016 03/M00 Q1022 NOSIG
14:50
M
3 °C 9 km 1.600 ft 040° 040° 12 kt METAR EDDL 021350Z AUTO 04012KT 010V070 9000 OVC016 03/00 Q1022 NOSIG
14:20
M
3 °C 9 km 1.500 ft 040° 040° 10 kt METAR EDDL 021320Z AUTO 04010KT 010V080 9000 OVC015 03/00 Q1022 NOSIG
13:50
M
3 °C 9 km 1.400 ft 040° 040° 11 kt METAR EDDL 021250Z AUTO 04011KT 9000 OVC014 03/00 Q1022 BECMG BKN015
13:20
M
3 °C 10 km+ 1.300 ft 040° 040° 11 kt METAR EDDL 021220Z AUTO 04011KT 9999 OVC013 03/00 Q1022 BECMG BKN015
12:50
M
3 °C 10 km+ 1.300 ft 040° 040° 11 kt METAR EDDL 021150Z AUTO 04011KT 010V070 9999 OVC013 03/00 Q1022 BECMG BKN015
12:20
M
3 °C 10 km+ 1.200 ft 040° 040° 10 kt METAR EDDL 021120Z AUTO 04010KT 9999 OVC012 03/01 Q1022 NOSIG
11:50
M
3 °C 10 km+ 1.200 ft 040° 040° 10 kt METAR EDDL 021050Z AUTO 04010KT 9999 OVC012 03/01 Q1023 NOSIG
11:20
M
3 °C 9 km 1.100 ft 040° 040° 12 kt METAR EDDL 021020Z AUTO 04012KT 9000 OVC011 03/01 Q1023 NOSIG
10:50
M
3 °C 8 km 1.100 ft 040° 040° 8 kt METAR EDDL 020950Z AUTO 04008KT 8000 OVC011 03/01 Q1023 NOSIG
10:20
M
3 °C 7 km 1.000 ft 030° 030° 6 kt METAR EDDL 020920Z AUTO 03006KT 7000 OVC010 03/01 Q1023 TEMPO BKN007
09:50
I
3 °C 6 km 900 ft 030° 030° 6 kt METAR EDDL 020850Z AUTO 03006KT 6000 OVC009 03/02 Q1023 TEMPO BKN012
09:20
I
3 °C 5 km 700 ft 030° 030° 7 kt METAR EDDL 020820Z AUTO 03007KT 5000 BR OVC007 03/02 Q1023 TEMPO 4000 -DZ
08:50
I
3 °C 5 km 700 ft 030° 030° 7 kt METAR EDDL 020750Z AUTO 03007KT 360V070 5000 BR OVC007 03/02 Q1023 TEMPO 4000 -DZ
08:20
I
3 °C 7 km 800 ft 040° 040° 7 kt METAR EDDL 020720Z AUTO 04007KT 020V080 7000 OVC008 03/02 Q1023 BECMG BKN012
07:50
I
3 °C 7 km 900 ft 030° 030° 7 kt METAR EDDL 020650Z AUTO 03007KT 360V060 7000 OVC009 03/01 Q1023
07:20
M
3 °C 8 km 1.100 ft 030° 030° 6 kt METAR EDDL 020620Z AUTO 03006KT 360V060 8000 OVC011 03/01 Q1023 NOSIG
06:50
M
3 °C 8 km 1.100 ft 040° 040° 7 kt METAR EDDL 020550Z AUTO 04007KT 010V070 8000 OVC011 03/01 Q1023 NOSIG
06:20
M
3 °C 8 km 1.100 ft 040° 040° 7 kt METAR EDDL 020520Z AUTO 04007KT 010V080 8000 OVC011 03/01 Q1023 NOSIG
05:50
M
3 °C 8 km 1.100 ft 050° 050° 7 kt METAR EDDL 020450Z AUTO 05007KT 010V070 8000 OVC011 03/01 Q1023 NOSIG
05:20
M
3 °C 7 km 1.100 ft 030° 030° 7 kt METAR EDDL 020420Z AUTO 03007KT 360V060 7000 OVC011 03/01 Q1023 NOSIG
04:50
M
3 °C 7 km 1.100 ft 050° 050° 8 kt METAR EDDL 020350Z AUTO 05008KT 7000 OVC011 03/01 Q1024
04:20
M
3 °C 8 km 1.200 ft 040° 040° 5 kt METAR EDDL 020320Z AUTO 04005KT 8000 OVC012 03/01 Q1024 NOSIG
03:50
M
3 °C 8 km 1.400 ft 020° 020° 6 kt METAR EDDL 020250Z AUTO 02006KT 8000 OVC014 03/01 Q1024 NOSIG
03:20
M
3 °C 10 km+ 1.500 ft 020° 020° 5 kt METAR EDDL 020220Z AUTO 02005KT 350V050 9999 OVC015 03/01 Q1024 BECMG BKN012
02:50
M
3 °C 9 km 1.200 ft 060° 060° 7 kt METAR EDDL 020150Z AUTO 06007KT 030V090 9000 OVC012 03/01 Q1024 NOSIG
02:20
M
3 °C 7 km 1.100 ft 060° 060° 4 kt METAR EDDL 020120Z AUTO 06004KT 030V090 7000 OVC011 03/01 Q1024 NOSIG
01:50
M
3 °C 8 km 1.200 ft 050° 050° 5 kt METAR EDDL 020050Z AUTO 05005KT 8000 OVC012 03/01 Q1025 NOSIG
01:20
M
4 °C 9 km 1.300 ft 070° 070° 6 kt METAR EDDL 020020Z AUTO 07006KT 9000 OVC013 04/01 Q1025 NOSIG
00:50
M
4 °C 9 km 1.400 ft 050° 050° 4 kt METAR EDDL 012350Z AUTO 05004KT 020V080 9000 OVC014 04/01 Q1025 NOSIG
00:20
M
4 °C 9 km 1.400 ft 060° 060° 6 kt METAR EDDL 012320Z AUTO 06006KT 9000 OVC014 04/01 Q1025 TEMPO BKN015

1. Dezember 2022

Uhrzeit Code Wetter Temp. Sichtweite Wolkendecke Wind METAR/SPECI
23:50
M
4 °C 10 km+ 1.500 ft 050° 050° 7 kt METAR EDDL 012250Z AUTO 05007KT 9999 OVC015 04/01 Q1025 NOSIG
23:20
M
4 °C 10 km+ 1.600 ft 070° 070° 8 kt METAR EDDL 012220Z AUTO 07008KT 9999 OVC016 04/01 Q1026 NOSIG
22:50
M
4 °C 10 km+ 1.600 ft 050° 050° 9 kt METAR EDDL 012150Z AUTO 05009KT 9999 OVC016 04/01 Q1026 NOSIG
22:20
M
4 °C 10 km+ 1.600 ft 050° 050° 8 kt METAR EDDL 012120Z AUTO 05008KT 020V080 9999 OVC016 04/01 Q1026 NOSIG
21:50
M
4 °C 10 km+ 1.600 ft 050° 050° 8 kt METAR EDDL 012050Z AUTO 05008KT 9999 OVC016 04/01 Q1026 NOSIG
21:20
M
4 °C 7 km 1.400 ft 070° 070° 8 kt METAR EDDL 012020Z AUTO 07008KT 7000 OVC014 04/02 Q1026 TEMPO BKN020
20:50
M
5 °C 8 km 1.500 ft 040° 040° 7 kt METAR EDDL 011950Z AUTO 04007KT 8000 BKN015 OVC038 05/02 Q1026 TEMPO BKN012
20:20
V
5 °C 8 km 3.700 ft 030° 030° 6 kt METAR EDDL 011920Z AUTO 03006KT 8000 FEW017 OVC037 05/02 Q1026 NOSIG
19:50
V
5 °C 9 km 3.800 ft 030° 030° 7 kt METAR EDDL 011850Z AUTO 03007KT 9000 SCT018 OVC038 05/02 Q1026 NOSIG
19:20
M
5 °C 8 km 1.600 ft 020° 020° 6 kt METAR EDDL 011820Z AUTO 02006KT 8000 OVC016 05/03 Q1026 NOSIG
18:50
M
5 °C 8 km 1.800 ft 030° 030° 4 kt METAR EDDL 011750Z AUTO 03004KT 360V060 8000 OVC018 05/03 Q1026 NOSIG
18:20
M
6 °C 7 km 1.700 ft 030° 030° 4 kt METAR EDDL 011720Z AUTO 03004KT 7000 BKN017 06/03 Q1026 BECMG BKN014
17:50
M
6 °C 8 km 1.900 ft 030° 030° 4 kt METAR EDDL 011650Z AUTO 03004KT 8000 BKN019 OVC042 06/03 Q1026 NOSIG
17:20
V
6 °C 8 km 4.100 ft 030° 030° 7 kt METAR EDDL 011620Z AUTO 03007KT 8000 FEW021 OVC041 06/03 Q1026 NOSIG
16:50
V
6 °C 8 km 4.000 ft 030° 030° 7 kt METAR EDDL 011550Z AUTO 03007KT 8000 FEW018 OVC040 06/03 Q1026 NOSIG
16:20
V
6 °C 8 km 4.000 ft 030° 030° 8 kt METAR EDDL 011520Z AUTO 03008KT 8000 FEW019 OVC040 06/03 Q1026 NOSIG
15:50
V
6 °C 8 km 3.900 ft 020° 020° 5 kt METAR EDDL 011450Z AUTO 02005KT 340V050 8000 FEW021 OVC039 06/03 Q1026 NOSIG
15:20
V
6 °C 9 km 4.000 ft 020° 020° 7 kt METAR EDDL 011420Z AUTO 02007KT 9000 FEW019 OVC040 06/03 Q1026 NOSIG
14:50
V
7 °C 10 km+ 4.200 ft 040° 040° 7 kt METAR EDDL 011350Z AUTO 04007KT 9999 FEW021 OVC042 07/03 Q1026 NOSIG
14:20
M
6 °C 10 km+ 1.900 ft 030° 030° 8 kt METAR EDDL 011320Z AUTO 03008KT 9999 SCT015 BKN019 BKN043 06/03 Q1026 TEMPO BKN014
13:50
V
7 °C 10 km+ 4.400 ft 030° 030° 8 kt METAR EDDL 011250Z AUTO 03008KT 9999 SCT016 BKN044 07/04 Q1026 NOSIG
13:20
M
6 °C 10 km+ 1.900 ft 030° 030° 7 kt METAR EDDL 011220Z AUTO 03007KT 9999 FEW012 OVC019 06/04 Q1026 NOSIG
12:50
M
6 °C 10 km+ 1.500 ft 040° 040° 7 kt METAR EDDL 011150Z AUTO 04007KT 9999 SCT007 OVC015 06/04 Q1026 NOSIG
12:20
I
6 °C 7 km 600 ft 030° 030° 8 kt METAR EDDL 011120Z AUTO 03008KT 010V070 7000 BKN006 06/04 Q1026 NOSIG
11:50
I
6 °C 9 km 700 ft 040° 040° 6 kt METAR EDDL 011050Z AUTO 04006KT 360V060 9000 OVC007 06/04 Q1027 NOSIG
11:20
I
6 °C 9 km 800 ft 020° 020° 7 kt METAR EDDL 011020Z AUTO 02007KT 9000 OVC008 06/04 Q1027 BECMG BKN010
10:50
I
6 °C 8 km 800 ft 030° 030° 8 kt METAR EDDL 010950Z AUTO 03008KT 8000 OVC008 06/04 Q1027 BECMG BKN010
10:20
I
6 °C 9 km 900 ft 030° 030° 9 kt METAR EDDL 010920Z AUTO 03009KT 9000 OVC009 06/04 Q1027 TEMPO BKN010
09:50
I
6 °C 7 km 800 ft 020° 020° 5 kt METAR EDDL 010850Z AUTO 02005KT 350V050 7000 BKN008 OVC013 06/04 Q1027 TEMPO BKN010 OVC015
09:20
I
6 °C 6 km 800 ft 030° 030° 6 kt METAR EDDL 010820Z AUTO 03006KT 6000 BKN008 06/04 Q1027 NOSIG
08:50
I
6 °C 7 km 800 ft 010° 010° 6 kt METAR EDDL 010750Z AUTO 01006KT 7000 OVC008 06/04 Q1026 NOSIG
08:20
I
6 °C 9 km 900 ft 030° 030° 9 kt METAR EDDL 010720Z AUTO 03009KT 9000 OVC009 06/04 Q1026 BECMG BKN011
07:50
I
6 °C 7 km 800 ft 020° 020° 6 kt METAR EDDL 010650Z AUTO 02006KT 7000 BKN008 06/04 Q1026 TEMPO BKN010
07:20
I
6 °C 6 km 600 ft 360° 360° 7 kt METAR EDDL 010620Z AUTO 36007KT 6000 BKN006 06/05 Q1026 TEMPO 4000 BR BKN004
06:50
I
6 °C 7 km 700 ft 010° 010° 8 kt METAR EDDL 010550Z AUTO 01008KT 7000 OVC007 06/05 Q1026 NOSIG
06:20
I
6 °C 10 km+ 900 ft 020° 020° 6 kt METAR EDDL 010520Z AUTO 02006KT 360V060 9999 BKN009 OVC012 06/04 Q1026 TEMPO SCT009 BKN012
05:50
M
6 °C 10 km+ 1.100 ft 030° 030° 8 kt METAR EDDL 010450Z AUTO 03008KT 9999 OVC011 06/04 Q1026 TEMPO BKN009
05:20
I
6 °C 10 km+ 800 ft 010° 010° 6 kt METAR EDDL 010420Z AUTO 01006KT 9999 BKN008 OVC012 06/05 Q1026 TEMPO BKN012
04:50
I
6 °C 6 km 500 ft 020° 020° 8 kt METAR EDDL 010350Z AUTO 02008KT 6000 BKN005 06/05 Q1026 NOSIG
04:20
L
6 °C 5 km 400 ft 020° 020° 7 kt METAR EDDL 010320Z AUTO 02007KT 5000 BR OVC004 06/05 Q1026 TEMPO BKN006
03:50
L
6 °C 5 km 400 ft 020° 020° 8 kt METAR EDDL 010250Z AUTO 02008KT 5000 BR OVC004 06/05 Q1026 TEMPO 4000 BR
03:20
L
6 °C 5 km 400 ft 030° 030° 8 kt METAR EDDL 010220Z AUTO 03008KT 5000 BR OVC004 06/05 Q1026 TEMPO 4000 BR
02:50
L
6 °C 5 km 300 ft 020° 020° 5 kt METAR EDDL 010150Z AUTO 02005KT 5000 BR OVC003 06/05 Q1026 TEMPO 4000 BR
02:20
L
6 °C 6 km 400 ft 020° 020° 8 kt METAR EDDL 010120Z AUTO 02008KT 6000 OVC004 06/05 Q1026 TEMPO 4000 BR
01:50
I
6 °C 8 km 500 ft 020° 020° 6 kt METAR EDDL 010050Z AUTO 02006KT 8000 OVC005 06/05 Q1025 TEMPO 4500 BR BKN004
01:20
I
6 °C 10 km+ 600 ft 360° 360° 6 kt METAR EDDL 010020Z AUTO 36006KT 9999 OVC006 06/05 Q1025 NOSIG
00:50
I
6 °C 10 km+ 600 ft 020° 020° 5 kt METAR EDDL 302350Z AUTO 02005KT 9999 BKN006 06/05 Q1026 NOSIG
00:20
I
6 °C 10 km+ 600 ft 010° 010° 7 kt METAR EDDL 302320Z AUTO 01007KT 9999 OVC006 06/05 Q1026 NOSIG

30. November 2022

Uhrzeit Code Wetter Temp. Sichtweite Wolkendecke Wind METAR/SPECI
23:50
I
6 °C 10 km+ 600 ft 020° 020° 5 kt METAR EDDL 302250Z AUTO 02005KT 350V050 9999 OVC006 06/05 Q1025 NOSIG
23:20
I
6 °C 10 km+ 600 ft 010° 010° 6 kt METAR EDDL 302220Z AUTO 01006KT 340V040 9999 BKN006 06/05 Q1025 NOSIG
22:50
I
6 °C 10 km+ 500 ft 020° 020° 5 kt METAR EDDL 302150Z AUTO 02005KT 9999 OVC005 06/05 Q1026 TEMPO 4000 BR BKN004
22:20
I
6 °C 10 km+ 600 ft 030° 030° 6 kt METAR EDDL 302120Z AUTO 03006KT 9999 BKN006 06/05 Q1026 TEMPO 4000 BR BKN004
21:50
I
6 °C 10 km+ 600 ft 020° 020° 5 kt METAR EDDL 302050Z AUTO 02005KT 9999 BKN006 BKN011 06/05 Q1026 TEMPO SCT006
21:20
I
6 °C 9 km 600 ft 010° 010° 4 kt METAR EDDL 302020Z AUTO 01004KT 9000 BKN006 06/05 Q1025 TEMPO 4000 BR BKN004
20:50
I
6 °C 10 km+ 900 ft 010° 010° 5 kt METAR EDDL 301950Z AUTO 01005KT 9999 OVC009 06/05 Q1025 TEMPO 4000 -DZ
20:20
I
6 °C 10 km+ 800 ft 010° 010° 4 kt METAR EDDL 301920Z AUTO 01004KT 9999 BKN008 OVC012 06/05 Q1025 NOSIG
19:50
I
6 °C 9 km 600 ft 010° 010° 6 kt METAR EDDL 301850Z AUTO 01006KT 9000 OVC006 06/05 Q1025 TEMPO 3500 -DZ
19:20
I
6 °C 8 km 600 ft 360° 360° 4 kt METAR EDDL 301820Z AUTO 36004KT 8000 OVC006 06/05 Q1025 TEMPO 3500 -DZ BKN004
18:50
I
6 °C 9 km 600 ft 350° 350° 5 kt METAR EDDL 301750Z AUTO 35005KT 9000 OVC006 06/05 Q1025 TEMPO 3500 -DZ
18:20
I
6 °C 10 km+ 800 ft 360° 360° 5 kt METAR EDDL 301720Z AUTO 36005KT 9999 OVC008 06/05 Q1025 TEMPO 3500 -DZ
17:50
I
7 °C 10 km+ 900 ft 010° 010° 5 kt METAR EDDL 301650Z AUTO 01005KT 9999 BKN009 BKN012 OVC016 07/05 Q1024 TEMPO 3500 -DZ BKN005
17:20
M
6 °C 10 km+ 1.200 ft 360° 360° 5 kt METAR EDDL 301620Z AUTO 36005KT 9999 BKN012 BKN023 06/05 Q1024 TEMPO 4000 -DZ BKN007
16:50
M
6 °C 9 km 1.900 ft 360° 360° 4 kt METAR EDDL 301550Z AUTO 36004KT 9000 FEW011 BKN019 OVC045 06/05 Q1024 TEMPO 4000 BR BKN008
16:20
I
7 °C 7 km 900 ft 010° 010° 5 kt METAR EDDL 301520Z AUTO 01005KT 7000 -DZ BKN009 BKN013 07/06 Q1024 TEMPO BKN012
15:50
M
7 °C 9 km 1.300 ft 010° 010° 5 kt METAR EDDL 301450Z AUTO 01005KT 9000 SCT009 BKN013 07/05 Q1024 TEMPO BKN008
15:20
M
7 °C 8 km 1.100 ft 360° 360° 4 kt METAR EDDL 301420Z AUTO 36004KT 8000 SCT007 OVC011 07/05 Q1024 TEMPO BKN007 OVC012
14:50
I
7 °C 6 km 700 ft 030° 030° 4 kt METAR EDDL 301350Z AUTO 03004KT 6000 BKN007 BKN010 07/06 Q1024 TEMPO 4500 BR SCT007 BKN010
14:20
M
7 °C 7 km 2.900 ft 030° 030° 4 kt METAR EDDL 301320Z AUTO 03004KT 320V060 7000 FEW008 OVC029 07/06 Q1024 TEMPO 4500 BR BKN008
13:50
M
7 °C 7 km 1.800 ft 330° 330° 5 kt METAR EDDL 301250Z AUTO 33005KT 7000 FEW007 BKN018 OVC026 07/05 Q1023 TEMPO 4500 BR BKN007 OVC015
13:20
I
7 °C 8 km 900 ft 360° 360° 4 kt METAR EDDL 301220Z AUTO 36004KT 320V030 8000 BKN009 OVC023 07/05 Q1024 TEMPO BKN010
12:50
I
7 °C 8 km 700 ft 360° 360° 4 kt METAR EDDL 301150Z AUTO 36004KT 320V020 8000 BKN007 BKN011 OVC021 07/05 Q1023 BECMG SCT007
12:20
I
6 °C 6 km 800 ft 360° 360° 3 kt METAR EDDL 301120Z AUTO 36003KT 6000 BKN008 BKN012 OVC025 06/05 Q1023 BECMG SCT008
11:50
I
6 °C 5 km 700 ft 350° 350° 4 kt METAR EDDL 301050Z AUTO 35004KT 5000 BR BKN007 OVC011 06/06 Q1023 BECMG SCT006
11:20
I
6 °C 4,7 km 600 ft 340° 340° 4 kt METAR EDDL 301020Z AUTO 34004KT 4700 BR BKN006 06/05 Q1024 TEMPO 2500 BR
10:50
I
6 °C 5 km 600 ft 330° 330° 5 kt METAR EDDL 300950Z AUTO 33005KT 5000 BR BKN006 BKN024 06/05 Q1024 TEMPO 3000 BR

Wir und Dritte verfolgen dein Internetverhalten auf unserer Website mit Cookies. Wenn du fortfährst, gehen wir davon aus, dass du mit unserer Cookie-Richtlinie einverstanden bist.